Flower, West Virginia
Current Conditions -  °F | °C
As of 2:55 PM on Wednesday 17 Dec 2014 (Local Time) from KW22 Reporting Station
Overcast Overcast  
Wind Chill: -5°   Ceiling: 2500
Heat Index:   Visibility: 10mi
Dew Point: -3°   Wind: 13mph
Humidity: 80%   Direction: 250°WSW
Pressure: 30.1"   Gusts: 18mph
Location:  38.837°N, 80.8415°W
Report Text: KW22 171955Z AUTO 25011G16KT 10SM SCT020 OVC025 M00/M03 A3010 RMK AO2
Loading
Personal Weather Stations






























Interactive Weather Map New forecast layout! Learn more

10-Day Weather Forecast

Advertisements
Track Severe Weather on mobile